createdAt,value
2022-11-20T00:01:42.705Z,76.15
2022-11-20T00:04:13.196Z,76.32
2022-11-20T00:06:41.598Z,76.33
2022-11-20T00:09:12.592Z,76.38
2022-11-20T00:11:41.097Z,76.22
2022-11-20T00:14:13.254Z,76.13
2022-11-20T00:16:41.648Z,76.35
2022-11-20T00:19:10.469Z,76.18
2022-11-20T00:21:38.999Z,76.30
2022-11-20T00:24:10.360Z,76.27
2022-11-20T00:26:38.934Z,76.51
2022-11-20T00:29:07.773Z,76.57
2022-11-20T00:31:37.722Z,76.60
2022-11-20T00:34:06.890Z,76.77
2022-11-20T00:36:36.268Z,76.88
2022-11-20T00:39:05.496Z,77.08
2022-11-20T00:41:33.889Z,77.08
2022-11-20T00:44:03.366Z,77.12
2022-11-20T00:46:31.753Z,77.13
2022-11-20T00:49:02.190Z,77.22
2022-11-20T00:51:31.078Z,77.17
2022-11-20T00:54:00.975Z,77.36
2022-11-20T00:56:30.631Z,77.24
2022-11-20T00:59:02.585Z,77.35
2022-11-20T01:01:31.678Z,77.47
2022-11-20T01:04:02.257Z,77.17
2022-11-20T01:06:32.415Z,77.33
2022-11-20T01:09:03.911Z,77.27
2022-11-20T01:11:34.672Z,77.31
2022-11-20T01:14:05.630Z,77.38
2022-11-20T01:16:35.299Z,77.37
2022-11-20T01:19:08.377Z,77.24
2022-11-20T01:21:39.339Z,77.26
2022-11-20T01:24:10.029Z,77.26
2022-11-20T01:26:40.663Z,77.17
2022-11-20T01:29:11.009Z,77.22
2022-11-20T01:31:39.851Z,77.15
2022-11-20T01:34:13.222Z,77.04
2022-11-20T01:36:42.771Z,77.08
2022-11-20T01:39:14.338Z,77.00
2022-11-20T01:42:10.381Z,76.90
2022-11-20T01:44:53.128Z,77.05
2022-11-20T01:47:27.615Z,77.04
2022-11-20T01:50:02.754Z,77.01
2022-11-20T01:52:38.106Z,76.96
2022-11-20T01:55:11.622Z,76.89
2022-11-20T01:57:42.141Z,76.96
2022-11-20T02:00:15.040Z,77.01
2022-11-20T02:02:47.938Z,76.97
2022-11-20T02:05:25.069Z,76.89
2022-11-20T02:07:56.800Z,76.99
2022-11-20T02:10:25.610Z,77.04
2022-11-20T02:13:12.933Z,77.02
2022-11-20T02:15:42.537Z,77.02
2022-11-20T02:18:12.611Z,77.10
2022-11-20T02:20:44.182Z,77.05
2022-11-20T02:23:15.478Z,76.97
2022-11-20T02:25:48.272Z,76.95
2022-11-20T02:28:19.115Z,76.87
2022-11-20T02:30:47.497Z,76.86
2022-11-20T02:33:16.978Z,77.02
2022-11-20T02:35:47.846Z,76.83
2022-11-20T02:38:17.374Z,76.87
2022-11-20T02:40:52.693Z,77.02
2022-11-20T02:43:24.604Z,77.03
2022-11-20T02:45:53.047Z,77.09
2022-11-20T02:48:25.138Z,77.01
2022-11-20T02:50:53.775Z,77.06
2022-11-20T02:53:23.264Z,77.12
2022-11-20T02:55:53.006Z,76.97
2022-11-20T02:58:22.366Z,77.14
2022-11-20T03:00:51.436Z,77.08
2022-11-20T03:03:20.446Z,77.01
2022-11-20T03:05:49.249Z,77.12
2022-11-20T03:08:17.672Z,77.21
2022-11-20T03:10:46.516Z,77.21
2022-11-20T03:13:16.829Z,77.24
2022-11-20T03:15:45.814Z,77.40
2022-11-20T03:18:14.655Z,77.37
2022-11-20T03:20:42.980Z,77.29
2022-11-20T03:23:12.241Z,77.38
2022-11-20T03:25:41.009Z,77.46
2022-11-20T03:28:09.387Z,77.55
2022-11-20T03:30:39.634Z,77.62
2022-11-20T03:33:08.032Z,77.58
2022-11-20T03:35:37.060Z,77.62
2022-11-20T03:38:05.923Z,77.58
2022-11-20T03:40:36.466Z,77.48
2022-11-20T03:43:05.343Z,77.50
2022-11-20T03:45:33.929Z,77.42
2022-11-20T03:48:04.597Z,77.38
2022-11-20T03:50:32.953Z,77.40
2022-11-20T03:53:01.781Z,77.39
2022-11-20T03:55:30.921Z,77.37
2022-11-20T03:57:59.270Z,77.53
2022-11-20T04:00:28.531Z,77.34
2022-11-20T04:02:59.857Z,77.30
2022-11-20T04:05:30.790Z,77.49
2022-11-20T04:08:00.040Z,77.46
2022-11-20T04:10:28.851Z,77.62
2022-11-20T04:12:57.212Z,77.71
2022-11-20T04:15:26.297Z,77.74
2022-11-20T04:17:55.905Z,78.05
2022-11-20T04:20:24.924Z,77.97
2022-11-20T04:22:56.641Z,78.14
2022-11-20T04:25:25.493Z,78.29
2022-11-20T04:27:53.870Z,78.30
2022-11-20T04:30:23.275Z,78.54
2022-11-20T04:32:51.620Z,78.55
2022-11-20T04:35:20.797Z,78.64
2022-11-20T04:37:49.216Z,78.58
2022-11-20T04:40:19.410Z,78.67
2022-11-20T04:42:47.766Z,78.65
2022-11-20T04:45:16.612Z,78.57
2022-11-20T04:47:45.262Z,78.68
2022-11-20T04:50:14.498Z,78.56
2022-11-20T04:52:42.856Z,78.56
2022-11-20T04:55:11.546Z,78.63
2022-11-20T04:57:42.200Z,78.67
2022-11-20T05:00:11.742Z,78.58
2022-11-20T05:02:41.141Z,78.46
2022-11-20T05:05:10.310Z,78.54
2022-11-20T05:07:38.810Z,78.40
2022-11-20T05:10:09.197Z,78.40
2022-11-20T05:12:37.597Z,78.51
2022-11-20T05:15:08.657Z,78.26
2022-11-20T05:17:37.215Z,78.21
2022-11-20T05:20:06.401Z,78.18
2022-11-20T05:22:35.049Z,78.12
2022-11-20T05:25:03.407Z,78.19
2022-11-20T05:27:31.985Z,78.05
2022-11-20T05:30:00.843Z,77.96
2022-11-20T05:32:30.550Z,77.97
2022-11-20T05:34:59.477Z,77.93
2022-11-20T05:37:28.371Z,77.92
2022-11-20T05:39:57.270Z,77.69
2022-11-20T05:42:34.599Z,77.72
2022-11-20T05:45:05.749Z,77.65
2022-11-20T05:47:36.471Z,77.71
2022-11-20T05:50:05.779Z,77.69
2022-11-20T05:52:34.875Z,77.54
2022-11-20T05:55:03.298Z,77.50
2022-11-20T05:57:33.023Z,77.43
2022-11-20T06:00:01.650Z,77.33
2022-11-20T06:02:32.755Z,77.22
2022-11-20T06:05:02.578Z,77.17
2022-11-20T06:07:31.035Z,77.07
2022-11-20T06:09:59.858Z,76.94
2022-11-20T06:12:28.538Z,76.91
2022-11-20T06:14:57.309Z,76.76
2022-11-20T06:17:26.152Z,76.77
2022-11-20T06:19:54.843Z,76.72
2022-11-20T06:22:24.581Z,76.79
2022-11-20T06:24:54.006Z,76.71
2022-11-20T06:27:22.711Z,76.62
2022-11-20T06:29:51.092Z,76.66
2022-11-20T06:32:20.342Z,76.51
2022-11-20T06:34:49.163Z,76.24
2022-11-20T06:37:17.602Z,76.25
2022-11-20T06:39:47.308Z,76.21
2022-11-20T06:42:16.487Z,76.13
2022-11-20T06:44:45.067Z,76.13
2022-11-20T06:47:13.919Z,76.14
2022-11-20T06:49:42.962Z,76.07
2022-11-20T06:52:11.356Z,75.98
2022-11-20T06:54:40.319Z,76.02
2022-11-20T06:57:10.048Z,76.10
2022-11-20T06:59:38.946Z,75.97
2022-11-20T07:02:07.447Z,76.02
2022-11-20T07:04:36.515Z,76.00
2022-11-20T07:07:04.897Z,75.99
2022-11-20T07:09:34.793Z,76.00
2022-11-20T07:12:03.481Z,75.77
2022-11-20T07:14:33.218Z,75.94
2022-11-20T07:17:02.363Z,75.91
2022-11-20T07:19:30.710Z,75.77
2022-11-20T07:22:00.009Z,75.72
2022-11-20T07:24:28.529Z,75.63
2022-11-20T07:26:57.795Z,75.36
2022-11-20T07:29:26.198Z,75.47
2022-11-20T07:31:56.611Z,75.63
2022-11-20T07:34:25.106Z,75.48
2022-11-20T07:36:53.821Z,75.33
2022-11-20T07:39:22.390Z,75.22
2022-11-20T07:41:52.051Z,75.29
2022-11-20T07:44:20.493Z,75.22
2022-11-20T07:46:48.846Z,76.99
2022-11-20T07:49:19.668Z,77.60
2022-11-20T07:51:51.862Z,77.22
2022-11-20T07:54:21.445Z,75.92
2022-11-20T07:56:50.780Z,75.44
2022-11-20T07:59:19.298Z,75.32
2022-11-20T08:01:48.387Z,75.07
2022-11-20T08:04:17.347Z,74.81
2022-11-20T08:06:48.399Z,74.66
2022-11-20T08:09:17.164Z,74.37
2022-11-20T08:12:03.195Z,74.37
2022-11-20T08:14:31.964Z,74.10
2022-11-20T08:17:00.322Z,74.08
2022-11-20T08:19:29.581Z,74.00
2022-11-20T08:21:59.577Z,73.87
2022-11-20T08:24:29.006Z,73.83
2022-11-20T08:27:00.205Z,73.61
2022-11-20T08:29:29.275Z,73.85
2022-11-20T08:31:58.216Z,73.66
2022-11-20T08:34:26.592Z,73.56
2022-11-20T08:36:55.930Z,73.80
2022-11-20T08:39:25.741Z,73.61
2022-11-20T08:41:54.785Z,73.69
2022-11-20T08:44:23.280Z,73.60
2022-11-20T08:46:51.970Z,73.49
2022-11-20T08:49:20.766Z,73.15
2022-11-20T08:51:53.114Z,72.96
2022-11-20T08:54:22.962Z,72.93
2022-11-20T08:56:53.373Z,72.94
2022-11-20T09:00:04.464Z,72.71
2022-11-20T09:02:11.178Z,72.39
2022-11-20T09:04:39.882Z,72.48
2022-11-20T09:07:08.356Z,72.18
2022-11-20T09:09:36.942Z,72.17
2022-11-20T09:12:07.660Z,71.92
2022-11-20T09:14:36.040Z,71.71
2022-11-20T09:17:05.436Z,71.75
2022-11-20T09:22:22.579Z,71.71
2022-11-20T09:24:51.006Z,71.60
2022-11-20T09:27:22.629Z,71.52
2022-11-20T09:29:51.562Z,71.55
2022-11-20T09:32:20.452Z,71.50
2022-11-20T09:34:49.156Z,71.64
2022-11-20T09:37:18.069Z,71.35
2022-11-20T09:39:46.442Z,71.49
2022-11-20T09:42:40.305Z,71.23
2022-11-20T09:45:24.730Z,71.10
2022-11-20T09:48:12.675Z,71.13
2022-11-20T09:50:49.345Z,71.05
2022-11-20T09:53:24.521Z,70.95
2022-11-20T09:55:53.782Z,70.80
2022-11-20T09:58:31.433Z,71.02
2022-11-20T10:01:06.157Z,70.69
2022-11-20T10:03:43.606Z,70.47
2022-11-20T10:06:18.111Z,70.49
2022-11-20T10:08:55.365Z,70.35
2022-11-20T10:11:34.654Z,70.07
2022-11-20T10:14:14.655Z,69.95
2022-11-20T10:17:00.026Z,70.02
2022-11-20T10:19:45.342Z,69.80
2022-11-20T10:22:27.823Z,69.90
2022-11-20T10:24:58.821Z,69.89
2022-11-20T10:27:54.046Z,69.88
2022-11-20T10:30:26.581Z,69.90
2022-11-20T10:33:00.429Z,69.59
2022-11-20T10:35:37.676Z,69.54
2022-11-20T10:38:15.306Z,69.25
2022-11-20T10:40:46.472Z,69.29
2022-11-20T10:43:21.322Z,69.22
2022-11-20T10:45:58.869Z,69.15
2022-11-20T10:48:29.800Z,69.09
2022-11-20T10:51:13.770Z,69.35
2022-11-20T10:53:59.789Z,68.82
2022-11-20T10:56:36.824Z,68.95
2022-11-20T10:59:21.834Z,68.60
2022-11-20T11:01:52.603Z,68.40
2022-11-20T11:04:32.190Z,68.33
2022-11-20T11:07:08.999Z,68.15
2022-11-20T11:09:43.267Z,68.15
2022-11-20T11:12:13.324Z,68.27
2022-11-20T11:14:46.857Z,68.09
2022-11-20T11:17:31.592Z,68.00
2022-11-20T11:20:09.305Z,68.27
2022-11-20T11:22:47.394Z,68.18
2022-11-20T11:25:28.594Z,68.23
2022-11-20T11:27:59.098Z,68.09
2022-11-20T11:30:31.453Z,68.46
2022-11-20T11:33:11.725Z,68.25
2022-11-20T11:35:51.144Z,68.11
2022-11-20T11:38:25.041Z,67.84
2022-11-20T11:40:57.417Z,67.86
2022-11-20T11:43:46.267Z,67.34
2022-11-20T11:46:27.841Z,67.54
2022-11-20T11:49:02.409Z,67.79
2022-11-20T11:51:38.906Z,67.71
2022-11-20T11:54:16.264Z,67.69
2022-11-20T11:56:46.310Z,67.73
2022-11-20T11:59:25.120Z,67.92
2022-11-20T12:01:59.960Z,67.83
2022-11-20T12:04:44.311Z,67.91
2022-11-20T12:07:44.739Z,68.04
2022-11-20T12:10:14.728Z,67.67
2022-11-20T12:12:48.059Z,67.60
2022-11-20T12:15:27.418Z,67.49
2022-11-20T12:17:56.909Z,67.39
2022-11-20T12:20:31.155Z,67.30
2022-11-20T12:23:09.847Z,67.54
2022-11-20T12:25:41.129Z,67.50
2022-11-20T12:28:27.393Z,67.53
2022-11-20T12:31:13.465Z,67.73
2022-11-20T12:33:56.738Z,67.73
2022-11-20T12:36:38.915Z,68.08
2022-11-20T12:39:24.399Z,68.18
2022-11-20T12:42:33.758Z,68.36
2022-11-20T12:45:17.023Z,68.43
2022-11-20T12:47:58.355Z,68.59
2022-11-20T12:50:53.207Z,68.76
2022-11-20T12:53:35.869Z,68.76
2022-11-20T12:56:15.089Z,68.79
2022-11-20T12:58:50.430Z,69.09
2022-11-20T13:01:42.108Z,68.98
2022-11-20T13:04:21.652Z,68.83
2022-11-20T13:06:51.288Z,68.87
2022-11-20T13:09:24.651Z,68.71
2022-11-20T13:12:05.717Z,68.84
2022-11-20T13:14:39.193Z,68.69
2022-11-20T13:17:13.706Z,68.89
2022-11-20T13:19:43.505Z,68.57
2022-11-20T13:22:12.219Z,68.62
2022-11-20T13:24:52.840Z,68.84
2022-11-20T13:27:24.126Z,68.81
2022-11-20T13:30:05.419Z,68.97
2022-11-20T13:32:33.975Z,69.18
2022-11-20T13:35:05.308Z,69.20
2022-11-20T13:37:36.118Z,69.34
2022-11-20T13:40:15.506Z,69.69
2022-11-20T13:42:47.701Z,69.86
2022-11-20T13:45:26.305Z,69.97
2022-11-20T13:48:22.951Z,70.17
2022-11-20T13:51:03.507Z,70.29
2022-11-20T13:53:54.900Z,70.32
2022-11-20T13:56:31.410Z,70.35
2022-11-20T13:59:14.747Z,70.54
2022-11-20T14:01:48.814Z,70.61
2022-11-20T14:04:22.903Z,70.83
2022-11-20T14:06:51.949Z,70.86
2022-11-20T14:09:29.643Z,71.05
2022-11-20T14:11:59.716Z,71.36
2022-11-20T14:14:30.477Z,71.42
2022-11-20T14:17:08.227Z,71.49
2022-11-20T14:19:38.785Z,71.48
2022-11-20T14:22:17.857Z,71.77
2022-11-20T14:24:47.365Z,72.21
2022-11-20T14:27:20.476Z,71.95
2022-11-20T14:29:52.793Z,72.25
2022-11-20T14:32:24.231Z,72.30
2022-11-20T14:34:53.330Z,72.54
2022-11-20T14:37:26.022Z,72.44
2022-11-20T14:39:56.555Z,72.64
2022-11-20T14:42:27.713Z,72.64
2022-11-20T14:44:59.781Z,72.78
2022-11-20T14:47:31.542Z,72.74
2022-11-20T14:50:08.664Z,72.96
2022-11-20T14:52:39.477Z,73.12
2022-11-20T14:55:10.788Z,72.81
2022-11-20T14:57:41.844Z,73.01
2022-11-20T15:00:21.734Z,72.94
2022-11-20T15:02:52.668Z,72.93
2022-11-20T15:05:23.615Z,72.81
2022-11-20T15:08:06.379Z,72.92
2022-11-20T15:10:35.831Z,72.84
2022-11-20T15:13:12.745Z,72.88
2022-11-20T15:15:47.890Z,72.85
2022-11-20T15:18:18.652Z,72.71
2022-11-20T15:20:48.586Z,72.79
2022-11-20T15:23:20.348Z,72.67
2022-11-20T15:25:49.790Z,72.66
2022-11-20T15:28:25.672Z,72.50
2022-11-20T15:30:54.570Z,72.59
2022-11-20T15:33:23.091Z,72.56
2022-11-20T15:35:51.977Z,72.47
2022-11-20T15:38:20.525Z,72.60
2022-11-20T15:40:49.902Z,72.52
2022-11-20T15:43:20.334Z,72.48
2022-11-20T15:45:52.591Z,72.32
2022-11-20T15:48:24.538Z,72.49
2022-11-20T15:50:56.267Z,72.39
2022-11-20T15:53:25.183Z,72.39
2022-11-20T15:55:53.746Z,72.39
2022-11-20T15:58:25.674Z,72.36
2022-11-20T16:00:55.167Z,72.50
2022-11-20T16:03:24.354Z,72.48
2022-11-20T16:05:52.776Z,72.52
2022-11-20T16:08:21.161Z,72.55
2022-11-20T16:10:49.614Z,72.51
2022-11-20T16:13:36.869Z,72.42
2022-11-20T16:16:10.595Z,72.57
2022-11-20T16:18:39.417Z,72.69
2022-11-20T16:21:14.148Z,72.44
2022-11-20T16:23:43.995Z,72.46
2022-11-20T16:26:13.503Z,72.36
2022-11-20T16:28:43.127Z,72.28
2022-11-20T16:31:15.247Z,72.34
2022-11-20T16:33:45.098Z,72.42
2022-11-20T16:36:15.095Z,72.21
2022-11-20T16:38:44.106Z,72.39
2022-11-20T16:41:15.208Z,72.49
2022-11-20T16:43:48.587Z,72.40
2022-11-20T16:46:20.128Z,72.31
2022-11-20T16:48:55.254Z,72.31
2022-11-20T16:51:24.393Z,72.28
2022-11-20T16:53:53.422Z,72.46
2022-11-20T16:56:23.774Z,72.58
2022-11-20T16:58:52.954Z,72.37
2022-11-20T17:01:25.309Z,72.35
2022-11-20T17:03:59.666Z,72.42
2022-11-20T17:06:29.954Z,72.42
2022-11-20T17:08:59.740Z,72.36
2022-11-20T17:11:29.293Z,72.34
2022-11-20T17:14:01.013Z,72.32
2022-11-20T17:16:31.821Z,72.32
2022-11-20T17:19:03.576Z,72.34
2022-11-20T17:21:32.668Z,72.10
2022-11-20T17:24:03.292Z,72.16
2022-11-20T17:26:32.548Z,72.17
2022-11-20T17:29:02.403Z,72.04
2022-11-20T17:31:34.234Z,72.03
2022-11-20T17:34:02.998Z,72.06
2022-11-20T17:36:32.884Z,72.09
2022-11-20T17:39:01.517Z,72.15
2022-11-20T17:41:31.396Z,72.00
2022-11-20T17:44:01.367Z,72.11
2022-11-20T17:46:34.059Z,72.25
2022-11-20T17:49:03.622Z,72.20
2022-11-20T17:51:36.547Z,72.32
2022-11-20T17:54:07.282Z,72.28
2022-11-20T17:56:54.658Z,72.15
2022-11-20T17:59:23.645Z,72.20
2022-11-20T18:01:56.805Z,72.32
2022-11-20T18:04:28.697Z,72.29
2022-11-20T18:06:57.861Z,72.05
2022-11-20T18:09:26.730Z,72.22
2022-11-20T18:11:55.110Z,72.06
2022-11-20T18:14:32.991Z,72.04
2022-11-20T18:17:05.238Z,72.09
2022-11-20T18:19:40.261Z,71.83
2022-11-20T18:22:14.330Z,71.78
2022-11-20T18:24:43.797Z,71.93
2022-11-20T18:27:16.423Z,71.83
2022-11-20T18:29:48.508Z,71.83
2022-11-20T18:32:18.627Z,71.78
2022-11-20T18:34:47.649Z,71.90
2022-11-20T18:37:16.629Z,71.77
2022-11-20T18:39:45.999Z,71.61
2022-11-20T18:42:33.434Z,71.76
2022-11-20T18:45:04.679Z,71.83
2022-11-20T18:47:39.249Z,71.95
2022-11-20T18:50:09.753Z,71.87
2022-11-20T18:52:41.804Z,71.70
2022-11-20T18:55:11.991Z,72.01
2022-11-20T18:57:41.058Z,72.14
2022-11-20T19:00:11.023Z,72.04
2022-11-20T19:05:30.344Z,71.93
2022-11-20T19:07:58.707Z,71.99
2022-11-20T19:10:27.670Z,72.07
2022-11-20T19:12:58.468Z,72.15
2022-11-20T19:15:28.209Z,72.05
2022-11-20T19:17:58.770Z,72.01
2022-11-20T19:20:27.677Z,72.11
2022-11-20T19:22:56.592Z,72.08
2022-11-20T19:25:24.964Z,71.90
2022-11-20T19:27:54.322Z,72.01
2022-11-20T19:30:22.803Z,72.00
2022-11-20T19:32:51.619Z,72.01
2022-11-20T19:35:21.417Z,72.07
2022-11-20T19:37:50.103Z,71.87
2022-11-20T19:40:18.957Z,71.93
2022-11-20T19:42:47.318Z,71.86
2022-11-20T19:45:16.557Z,71.85
2022-11-20T19:48:06.701Z,72.02
2022-11-20T19:50:36.009Z,72.05
2022-11-20T19:53:04.522Z,72.05
2022-11-20T19:55:33.449Z,71.97
2022-11-20T19:58:03.166Z,72.14
2022-11-20T20:00:33.014Z,72.09
2022-11-20T20:03:01.589Z,72.14
2022-11-20T20:05:30.340Z,72.20
2022-11-20T20:08:00.172Z,72.17
2022-11-20T20:10:29.065Z,72.26
2022-11-20T20:12:57.613Z,72.40
2022-11-20T20:15:26.519Z,72.42
2022-11-20T20:17:55.334Z,72.58
2022-11-20T20:20:24.138Z,72.64
2022-11-20T20:22:52.600Z,72.65
2022-11-20T20:25:22.959Z,72.60
2022-11-20T20:27:51.384Z,72.75
2022-11-20T20:30:20.143Z,72.80
2022-11-20T20:32:53.266Z,72.74
2022-11-20T20:35:25.468Z,72.75
2022-11-20T20:37:53.856Z,72.69
2022-11-20T20:40:24.731Z,72.78
2022-11-20T20:42:53.118Z,72.86
2022-11-20T20:45:22.215Z,72.80
2022-11-20T20:47:50.586Z,72.86
2022-11-20T20:50:19.478Z,72.82
2022-11-20T20:52:48.235Z,72.92
2022-11-20T20:55:16.735Z,72.80
2022-11-20T20:57:46.855Z,72.93
2022-11-20T21:00:16.859Z,72.96
2022-11-20T21:02:46.607Z,72.98
2022-11-20T21:05:15.370Z,72.99
2022-11-20T21:07:58.384Z,73.10
2022-11-20T21:10:26.993Z,73.04
2022-11-20T21:12:57.073Z,73.02
2022-11-20T21:15:25.460Z,73.05
2022-11-20T21:17:54.031Z,73.21
2022-11-20T21:20:40.723Z,73.21
2022-11-20T21:23:10.371Z,73.31
2022-11-20T21:25:39.525Z,73.31
2022-11-20T21:28:13.084Z,73.31
2022-11-20T21:30:44.530Z,73.38
2022-11-20T21:33:12.913Z,73.40
2022-11-20T21:35:41.892Z,73.47
2022-11-20T21:38:10.870Z,73.36
2022-11-20T21:40:39.444Z,73.35
2022-11-20T21:43:09.176Z,73.32
2022-11-20T21:45:38.261Z,73.33
2022-11-20T21:48:07.392Z,73.26
2022-11-20T21:50:36.308Z,73.10
2022-11-20T21:53:04.699Z,73.21
2022-11-20T21:55:33.546Z,73.16
2022-11-20T21:58:01.921Z,73.10
2022-11-20T22:00:31.635Z,73.20
2022-11-20T22:03:00.338Z,73.35
2022-11-20T22:05:28.790Z,73.24
2022-11-20T22:07:57.545Z,73.35
2022-11-20T22:10:27.895Z,73.30
2022-11-20T22:13:17.233Z,73.28
2022-11-20T22:16:00.359Z,73.20
2022-11-20T22:18:29.712Z,73.43
2022-11-20T22:20:58.683Z,73.63
2022-11-20T22:23:27.155Z,73.72
2022-11-20T22:25:55.816Z,73.87
2022-11-20T22:28:24.653Z,74.07
2022-11-20T22:30:54.329Z,74.17
2022-11-20T22:33:23.479Z,74.22
2022-11-20T22:35:51.931Z,74.40
2022-11-20T22:38:20.563Z,74.45
2022-11-20T22:40:48.949Z,74.47
2022-11-20T22:43:17.651Z,74.58
2022-11-20T22:45:46.691Z,74.73
2022-11-20T22:48:16.814Z,74.90
2022-11-20T22:50:46.515Z,74.84
2022-11-20T22:53:15.209Z,74.92
2022-11-20T22:55:43.589Z,75.06
2022-11-20T22:58:12.640Z,75.18
2022-11-20T23:00:41.007Z,75.23
2022-11-20T23:03:09.866Z,75.21
2022-11-20T23:05:39.751Z,75.35
2022-11-20T23:08:08.404Z,75.51
2022-11-20T23:10:36.820Z,75.64
2022-11-20T23:13:05.793Z,75.74
2022-11-20T23:15:35.434Z,75.87
2022-11-20T23:18:04.237Z,75.85
2022-11-20T23:20:33.406Z,76.03
2022-11-20T23:23:03.634Z,76.16
2022-11-20T23:25:32.257Z,76.34
2022-11-20T23:28:00.599Z,76.46
2022-11-20T23:30:29.191Z,76.66
2022-11-20T23:32:58.370Z,76.78
2022-11-20T23:35:26.780Z,76.75
2022-11-20T23:37:55.851Z,76.88
2022-11-20T23:40:25.540Z,76.89
2022-11-20T23:43:12.329Z,77.15
2022-11-20T23:45:40.739Z,76.96
2022-11-20T23:48:10.097Z,77.22
2022-11-20T23:50:38.571Z,77.38
2022-11-20T23:53:08.281Z,77.41
2022-11-20T23:55:38.042Z,77.51
2022-11-20T23:58:07.063Z,77.71
